Terminal Aerodrome Forecast
Issued by NWS St Louis, MO

Home | Current Version | Previous Version | Text Only | Print | Product List | Glossary On
Versions: 1 2 3 4 5 6 7 8 9 10 11 12 13 14 15 16 17 18 19
000
FTUS43 KLSX 220000 AAA
TAFCOU
TAF AMD
KCOU 220021Z 2200/2224 29010KT P6SM OVC050
      TEMPO 2202/2203 2SM -TSRA OVC030CB
     FM220300 32010KT P6SM BKN040
     FM220500 35011KT P6SM SKC=

USA.gov is the U.S. government's official web portal to all federal, state and local government web resources and services.